sensor_id;sensor_type;location;lat;lon;timestamp;temperature;humidity
58469;DHT22;44257;44.804;10.220;2023-05-07T00:01:59;16.90;99.90
58469;DHT22;44257;44.804;10.220;2023-05-07T00:04:25;16.90;99.90
58469;DHT22;44257;44.804;10.220;2023-05-07T00:06:51;16.80;99.90
58469;DHT22;44257;44.804;10.220;2023-05-07T00:09:17;16.80;99.90
58469;DHT22;44257;44.804;10.220;2023-05-07T00:11:42;16.80;99.90
58469;DHT22;44257;44.804;10.220;2023-05-07T00:14:08;16.80;99.90
58469;DHT22;44257;44.804;10.220;2023-05-07T00:16:34;16.80;99.90
58469;DHT22;44257;44.804;10.220;2023-05-07T00:19:00;16.80;99.90
58469;DHT22;44257;44.804;10.220;2023-05-07T00:21:26;16.80;99.90
58469;DHT22;44257;44.804;10.220;2023-05-07T00:23:53;16.80;99.90
58469;DHT22;44257;44.804;10.220;2023-05-07T00:26:19;16.80;99.90
58469;DHT22;44257;44.804;10.220;2023-05-07T00:28:47;16.90;99.90
58469;DHT22;44257;44.804;10.220;2023-05-07T00:31:13;16.80;99.90
58469;DHT22;44257;44.804;10.220;2023-05-07T00:33:39;16.70;99.90
58469;DHT22;44257;44.804;10.220;2023-05-07T00:36:05;16.70;99.90
58469;DHT22;44257;44.804;10.220;2023-05-07T00:38:31;16.70;99.90
58469;DHT22;44257;44.804;10.220;2023-05-07T00:40:56;16.70;99.90
58469;DHT22;44257;44.804;10.220;2023-05-07T00:43:22;16.60;99.90
58469;DHT22;44257;44.804;10.220;2023-05-07T00:45:48;16.60;99.90
58469;DHT22;44257;44.804;10.220;2023-05-07T00:48:14;16.60;99.90
58469;DHT22;44257;44.804;10.220;2023-05-07T00:50:40;16.60;99.90
58469;DHT22;44257;44.804;10.220;2023-05-07T00:53:07;16.50;99.90
58469;DHT22;44257;44.804;10.220;2023-05-07T00:55:33;16.60;99.90
58469;DHT22;44257;44.804;10.220;2023-05-07T00:57:59;16.50;99.90
58469;DHT22;44257;44.804;10.220;2023-05-07T01:00:25;16.60;99.90
58469;DHT22;44257;44.804;10.220;2023-05-07T01:02:51;16.60;99.90
58469;DHT22;44257;44.804;10.220;2023-05-07T01:05:19;16.50;99.90
58469;DHT22;44257;44.804;10.220;2023-05-07T01:07:46;16.60;99.90
58469;DHT22;44257;44.804;10.220;2023-05-07T01:10:13;16.50;99.90
58469;DHT22;44257;44.804;10.220;2023-05-07T01:12:40;16.50;99.90
58469;DHT22;44257;44.804;10.220;2023-05-07T01:15:08;16.40;99.90
58469;DHT22;44257;44.804;10.220;2023-05-07T01:17:42;16.40;99.90
58469;DHT22;44257;44.804;10.220;2023-05-07T01:20:14;16.30;99.90
58469;DHT22;44257;44.804;10.220;2023-05-07T01:22:43;16.20;99.90
58469;DHT22;44257;44.804;10.220;2023-05-07T01:25:10;16.10;99.90
58469;DHT22;44257;44.804;10.220;2023-05-07T01:27:41;16.10;99.90
58469;DHT22;44257;44.804;10.220;2023-05-07T01:30:07;16.10;99.90
58469;DHT22;44257;44.804;10.220;2023-05-07T01:32:47;16.10;99.90
58469;DHT22;44257;44.804;10.220;2023-05-07T01:35:20;16.00;99.90
58469;DHT22;44257;44.804;10.220;2023-05-07T01:37:48;16.00;99.90
58469;DHT22;44257;44.804;10.220;2023-05-07T01:40:15;15.90;99.90
58469;DHT22;44257;44.804;10.220;2023-05-07T01:42:43;15.80;99.90
58469;DHT22;44257;44.804;10.220;2023-05-07T01:45:09;15.80;99.90
58469;DHT22;44257;44.804;10.220;2023-05-07T01:47:36;15.70;99.90
58469;DHT22;44257;44.804;10.220;2023-05-07T01:50:06;15.60;99.90
58469;DHT22;44257;44.804;10.220;2023-05-07T01:52:34;15.60;99.90
58469;DHT22;44257;44.804;10.220;2023-05-07T01:55:00;15.60;99.90
58469;DHT22;44257;44.804;10.220;2023-05-07T01:57:26;15.50;99.90
58469;DHT22;44257;44.804;10.220;2023-05-07T01:59:52;15.40;99.90
58469;DHT22;44257;44.804;10.220;2023-05-07T02:02:18;15.40;99.90
58469;DHT22;44257;44.804;10.220;2023-05-07T02:04:44;15.30;99.90
58469;DHT22;44257;44.804;10.220;2023-05-07T02:07:11;15.30;99.90
58469;DHT22;44257;44.804;10.220;2023-05-07T02:09:38;15.30;99.90
58469;DHT22;44257;44.804;10.220;2023-05-07T02:12:04;15.30;99.90
58469;DHT22;44257;44.804;10.220;2023-05-07T02:14:30;15.30;99.90
58469;DHT22;44257;44.804;10.220;2023-05-07T02:16:56;15.20;99.90
58469;DHT22;44257;44.804;10.220;2023-05-07T02:19:22;15.10;99.90
58469;DHT22;44257;44.804;10.220;2023-05-07T02:21:48;15.10;99.90
58469;DHT22;44257;44.804;10.220;2023-05-07T02:24:14;15.10;99.90
58469;DHT22;44257;44.804;10.220;2023-05-07T02:26:40;15.00;99.90
58469;DHT22;44257;44.804;10.220;2023-05-07T02:29:06;15.00;99.90
58469;DHT22;44257;44.804;10.220;2023-05-07T02:31:33;15.00;99.90
58469;DHT22;44257;44.804;10.220;2023-05-07T02:34:00;15.00;99.90
58469;DHT22;44257;44.804;10.220;2023-05-07T02:36:27;15.00;99.90
58469;DHT22;44257;44.804;10.220;2023-05-07T02:38:59;15.00;99.90
58469;DHT22;44257;44.804;10.220;2023-05-07T02:41:27;15.00;99.90
58469;DHT22;44257;44.804;10.220;2023-05-07T02:43:53;14.90;99.90
58469;DHT22;44257;44.804;10.220;2023-05-07T02:46:19;14.90;99.90
58469;DHT22;44257;44.804;10.220;2023-05-07T02:48:50;14.80;99.90
58469;DHT22;44257;44.804;10.220;2023-05-07T02:51:20;14.70;99.90
58469;DHT22;44257;44.804;10.220;2023-05-07T02:53:46;14.70;99.90
58469;DHT22;44257;44.804;10.220;2023-05-07T02:56:12;14.60;99.90
58469;DHT22;44257;44.804;10.220;2023-05-07T02:58:38;14.60;99.90
58469;DHT22;44257;44.804;10.220;2023-05-07T03:01:08;14.50;99.90
58469;DHT22;44257;44.804;10.220;2023-05-07T03:03:39;14.40;99.90
58469;DHT22;44257;44.804;10.220;2023-05-07T03:06:05;14.30;99.90
58469;DHT22;44257;44.804;10.220;2023-05-07T03:08:33;14.30;99.90
58469;DHT22;44257;44.804;10.220;2023-05-07T03:10:58;14.30;99.90
58469;DHT22;44257;44.804;10.220;2023-05-07T03:13:25;14.20;99.90
58469;DHT22;44257;44.804;10.220;2023-05-07T03:15:51;14.20;99.90
58469;DHT22;44257;44.804;10.220;2023-05-07T03:18:17;14.20;99.90
58469;DHT22;44257;44.804;10.220;2023-05-07T03:20:43;14.20;99.90
58469;DHT22;44257;44.804;10.220;2023-05-07T03:23:09;14.10;99.90
58469;DHT22;44257;44.804;10.220;2023-05-07T03:25:35;14.10;99.90
58469;DHT22;44257;44.804;10.220;2023-05-07T03:28:01;14.00;99.90
58469;DHT22;44257;44.804;10.220;2023-05-07T03:30:36;14.00;99.90
58469;DHT22;44257;44.804;10.220;2023-05-07T03:33:01;13.90;99.90
58469;DHT22;44257;44.804;10.220;2023-05-07T03:35:28;13.90;99.90
58469;DHT22;44257;44.804;10.220;2023-05-07T03:37:53;13.80;99.90
58469;DHT22;44257;44.804;10.220;2023-05-07T03:40:20;13.80;99.90
58469;DHT22;44257;44.804;10.220;2023-05-07T03:42:51;13.80;99.90
58469;DHT22;44257;44.804;10.220;2023-05-07T03:45:19;13.70;99.90
58469;DHT22;44257;44.804;10.220;2023-05-07T03:47:51;13.70;99.90
58469;DHT22;44257;44.804;10.220;2023-05-07T03:50:19;13.70;99.90
58469;DHT22;44257;44.804;10.220;2023-05-07T03:52:45;13.70;99.90
58469;DHT22;44257;44.804;10.220;2023-05-07T03:55:13;13.70;99.90
58469;DHT22;44257;44.804;10.220;2023-05-07T03:57:42;13.70;99.90
58469;DHT22;44257;44.804;10.220;2023-05-07T04:00:08;13.60;99.90
58469;DHT22;44257;44.804;10.220;2023-05-07T04:02:46;13.60;99.90
58469;DHT22;44257;44.804;10.220;2023-05-07T04:05:14;13.70;99.90
58469;DHT22;44257;44.804;10.220;2023-05-07T04:07:41;13.70;99.90
58469;DHT22;44257;44.804;10.220;2023-05-07T04:10:09;13.60;99.90
58469;DHT22;44257;44.804;10.220;2023-05-07T04:12:37;13.60;99.90
58469;DHT22;44257;44.804;10.220;2023-05-07T04:15:04;13.60;99.90
58469;DHT22;44257;44.804;10.220;2023-05-07T04:17:30;13.60;99.90
58469;DHT22;44257;44.804;10.220;2023-05-07T04:19:56;13.50;99.90
58469;DHT22;44257;44.804;10.220;2023-05-07T04:22:22;13.60;99.90
58469;DHT22;44257;44.804;10.220;2023-05-07T04:24:48;13.60;99.90
58469;DHT22;44257;44.804;10.220;2023-05-07T04:27:14;13.70;99.90
58469;DHT22;44257;44.804;10.220;2023-05-07T04:29:40;13.70;99.90
58469;DHT22;44257;44.804;10.220;2023-05-07T04:32:10;13.80;99.90
58469;DHT22;44257;44.804;10.220;2023-05-07T04:34:39;13.80;99.90
58469;DHT22;44257;44.804;10.220;2023-05-07T04:37:05;13.80;99.90
58469;DHT22;44257;44.804;10.220;2023-05-07T04:39:32;13.90;99.90
58469;DHT22;44257;44.804;10.220;2023-05-07T04:42:01;13.90;99.90
58469;DHT22;44257;44.804;10.220;2023-05-07T04:44:27;14.10;99.90
58469;DHT22;44257;44.804;10.220;2023-05-07T04:46:54;14.20;99.90
58469;DHT22;44257;44.804;10.220;2023-05-07T04:49:19;14.30;99.90
58469;DHT22;44257;44.804;10.220;2023-05-07T04:51:45;14.40;99.90
58469;DHT22;44257;44.804;10.220;2023-05-07T04:54:13;14.60;99.90
58469;DHT22;44257;44.804;10.220;2023-05-07T04:56:39;14.80;99.90
58469;DHT22;44257;44.804;10.220;2023-05-07T04:59:05;15.10;99.90
58469;DHT22;44257;44.804;10.220;2023-05-07T05:01:31;15.30;99.90
58469;DHT22;44257;44.804;10.220;2023-05-07T05:03:57;15.50;99.90
58469;DHT22;44257;44.804;10.220;2023-05-07T05:06:25;15.70;99.90
58469;DHT22;44257;44.804;10.220;2023-05-07T05:08:51;15.90;99.90
58469;DHT22;44257;44.804;10.220;2023-05-07T05:11:17;16.10;99.90
58469;DHT22;44257;44.804;10.220;2023-05-07T05:13:43;16.30;99.90
58469;DHT22;44257;44.804;10.220;2023-05-07T05:16:16;16.50;99.90
58469;DHT22;44257;44.804;10.220;2023-05-07T05:18:42;16.60;99.90
58469;DHT22;44257;44.804;10.220;2023-05-07T05:21:10;16.80;99.90
58469;DHT22;44257;44.804;10.220;2023-05-07T05:23:36;17.00;99.90
58469;DHT22;44257;44.804;10.220;2023-05-07T05:26:03;17.20;99.90
58469;DHT22;44257;44.804;10.220;2023-05-07T05:28:31;17.50;99.90
58469;DHT22;44257;44.804;10.220;2023-05-07T05:30:57;17.70;99.90
58469;DHT22;44257;44.804;10.220;2023-05-07T05:33:24;17.80;99.90
58469;DHT22;44257;44.804;10.220;2023-05-07T05:35:50;18.10;99.90
58469;DHT22;44257;44.804;10.220;2023-05-07T05:38:16;18.20;99.90
58469;DHT22;44257;44.804;10.220;2023-05-07T05:40:42;18.20;99.90
58469;DHT22;44257;44.804;10.220;2023-05-07T05:43:08;18.40;99.90
58469;DHT22;44257;44.804;10.220;2023-05-07T05:45:36;18.60;99.90
58469;DHT22;44257;44.804;10.220;2023-05-07T05:48:02;18.90;99.90
58469;DHT22;44257;44.804;10.220;2023-05-07T05:50:29;19.30;99.90
58469;DHT22;44257;44.804;10.220;2023-05-07T05:52:55;19.70;99.90
58469;DHT22;44257;44.804;10.220;2023-05-07T05:55:21;20.10;99.90
58469;DHT22;44257;44.804;10.220;2023-05-07T05:57:47;20.40;99.90
58469;DHT22;44257;44.804;10.220;2023-05-07T06:00:14;20.80;99.90
58469;DHT22;44257;44.804;10.220;2023-05-07T06:02:45;21.10;99.90
58469;DHT22;44257;44.804;10.220;2023-05-07T06:05:15;21.30;99.90
58469;DHT22;44257;44.804;10.220;2023-05-07T06:07:42;21.50;99.90
58469;DHT22;44257;44.804;10.220;2023-05-07T06:10:08;21.70;99.90
58469;DHT22;44257;44.804;10.220;2023-05-07T06:12:34;21.90;99.90
58469;DHT22;44257;44.804;10.220;2023-05-07T06:15:00;22.20;99.90
58469;DHT22;44257;44.804;10.220;2023-05-07T06:17:27;22.50;99.90
58469;DHT22;44257;44.804;10.220;2023-05-07T06:19:53;22.80;99.90
58469;DHT22;44257;44.804;10.220;2023-05-07T06:22:19;23.00;99.90
58469;DHT22;44257;44.804;10.220;2023-05-07T06:24:45;23.20;99.90
58469;DHT22;44257;44.804;10.220;2023-05-07T06:27:12;23.20;99.90
58469;DHT22;44257;44.804;10.220;2023-05-07T06:29:39;23.10;99.90
58469;DHT22;44257;44.804;10.220;2023-05-07T06:32:13;22.90;99.90
58469;DHT22;44257;44.804;10.220;2023-05-07T06:34:41;22.90;99.90
58469;DHT22;44257;44.804;10.220;2023-05-07T06:37:07;22.80;99.90
58469;DHT22;44257;44.804;10.220;2023-05-07T06:39:47;22.70;99.90
58469;DHT22;44257;44.804;10.220;2023-05-07T06:42:13;22.70;99.90
58469;DHT22;44257;44.804;10.220;2023-05-07T06:44:42;22.60;99.90
58469;DHT22;44257;44.804;10.220;2023-05-07T06:47:10;22.60;99.90
58469;DHT22;44257;44.804;10.220;2023-05-07T06:49:38;22.60;99.90
58469;DHT22;44257;44.804;10.220;2023-05-07T06:52:04;22.50;99.90
58469;DHT22;44257;44.804;10.220;2023-05-07T06:54:30;22.50;99.90
58469;DHT22;44257;44.804;10.220;2023-05-07T06:56:57;22.50;99.90
58469;DHT22;44257;44.804;10.220;2023-05-07T06:59:25;22.60;99.90
58469;DHT22;44257;44.804;10.220;2023-05-07T07:01:52;22.70;99.90
58469;DHT22;44257;44.804;10.220;2023-05-07T07:04:18;22.70;99.90
58469;DHT22;44257;44.804;10.220;2023-05-07T07:06:51;22.70;99.90
58469;DHT22;44257;44.804;10.220;2023-05-07T07:09:17;22.80;99.90
58469;DHT22;44257;44.804;10.220;2023-05-07T07:11:42;22.90;99.90
58469;DHT22;44257;44.804;10.220;2023-05-07T07:14:08;23.10;99.90
58469;DHT22;44257;44.804;10.220;2023-05-07T07:16:40;23.20;99.90
58469;DHT22;44257;44.804;10.220;2023-05-07T07:19:06;23.30;99.90
58469;DHT22;44257;44.804;10.220;2023-05-07T07:21:32;23.30;99.90
58469;DHT22;44257;44.804;10.220;2023-05-07T07:23:58;23.40;99.90
58469;DHT22;44257;44.804;10.220;2023-05-07T07:26:24;23.70;99.90
58469;DHT22;44257;44.804;10.220;2023-05-07T07:28:50;23.90;99.90
58469;DHT22;44257;44.804;10.220;2023-05-07T07:31:19;24.10;99.90
58469;DHT22;44257;44.804;10.220;2023-05-07T07:33:47;24.20;99.90
58469;DHT22;44257;44.804;10.220;2023-05-07T07:36:13;24.30;99.90
58469;DHT22;44257;44.804;10.220;2023-05-07T07:38:39;24.40;99.90
58469;DHT22;44257;44.804;10.220;2023-05-07T07:41:05;24.50;99.90
58469;DHT22;44257;44.804;10.220;2023-05-07T07:43:33;24.60;99.90
58469;DHT22;44257;44.804;10.220;2023-05-07T07:45:59;24.70;99.90
58469;DHT22;44257;44.804;10.220;2023-05-07T07:48:26;24.80;99.90
58469;DHT22;44257;44.804;10.220;2023-05-07T07:50:52;24.90;99.90
58469;DHT22;44257;44.804;10.220;2023-05-07T07:53:19;25.00;99.90
58469;DHT22;44257;44.804;10.220;2023-05-07T07:55:45;25.20;99.90
58469;DHT22;44257;44.804;10.220;2023-05-07T07:58:13;25.30;99.90
58469;DHT22;44257;44.804;10.220;2023-05-07T08:00:39;25.30;99.90
58469;DHT22;44257;44.804;10.220;2023-05-07T08:03:05;25.40;99.90
58469;DHT22;44257;44.804;10.220;2023-05-07T08:05:38;25.50;99.90
58469;DHT22;44257;44.804;10.220;2023-05-07T08:08:05;25.60;99.90
58469;DHT22;44257;44.804;10.220;2023-05-07T08:10:33;25.60;99.90
58469;DHT22;44257;44.804;10.220;2023-05-07T08:13:05;25.60;99.60
58469;DHT22;44257;44.804;10.220;2023-05-07T08:15:32;25.30;99.70
58469;DHT22;44257;44.804;10.220;2023-05-07T08:17:58;24.90;99.90
58469;DHT22;44257;44.804;10.220;2023-05-07T08:20:26;24.80;99.90
58469;DHT22;44257;44.804;10.220;2023-05-07T08:22:52;24.60;99.90
58469;DHT22;44257;44.804;10.220;2023-05-07T08:25:18;24.70;99.90
58469;DHT22;44257;44.804;10.220;2023-05-07T08:27:45;24.80;99.90
58469;DHT22;44257;44.804;10.220;2023-05-07T08:30:12;25.00;99.90
58469;DHT22;44257;44.804;10.220;2023-05-07T08:32:38;25.30;99.90
58469;DHT22;44257;44.804;10.220;2023-05-07T08:35:04;25.50;99.90
58469;DHT22;44257;44.804;10.220;2023-05-07T08:37:30;25.80;99.90
58469;DHT22;44257;44.804;10.220;2023-05-07T08:39:56;25.90;99.10
58469;DHT22;44257;44.804;10.220;2023-05-07T08:42:27;26.00;99.70
58469;DHT22;44257;44.804;10.220;2023-05-07T08:44:55;26.00;99.90
58469;DHT22;44257;44.804;10.220;2023-05-07T08:47:23;26.00;99.90
58469;DHT22;44257;44.804;10.220;2023-05-07T08:49:53;26.10;99.90
58469;DHT22;44257;44.804;10.220;2023-05-07T08:52:20;26.20;99.90
58469;DHT22;44257;44.804;10.220;2023-05-07T08:54:47;26.40;99.90
58469;DHT22;44257;44.804;10.220;2023-05-07T08:57:13;26.40;99.90
58469;DHT22;44257;44.804;10.220;2023-05-07T08:59:40;26.50;99.00
58469;DHT22;44257;44.804;10.220;2023-05-07T09:02:08;26.50;99.90
58469;DHT22;44257;44.804;10.220;2023-05-07T09:04:35;26.60;99.00
58469;DHT22;44257;44.804;10.220;2023-05-07T09:07:01;26.80;99.90
58469;DHT22;44257;44.804;10.220;2023-05-07T09:09:32;27.00;99.20
58469;DHT22;44257;44.804;10.220;2023-05-07T09:12:00;27.10;99.30
58469;DHT22;44257;44.804;10.220;2023-05-07T09:14:30;27.30;98.80
58469;DHT22;44257;44.804;10.220;2023-05-07T09:16:56;27.40;99.70
58469;DHT22;44257;44.804;10.220;2023-05-07T09:19:26;27.50;98.20
58469;DHT22;44257;44.804;10.220;2023-05-07T09:22:04;27.50;97.70
58469;DHT22;44257;44.804;10.220;2023-05-07T09:24:50;27.20;97.40
58469;DHT22;44257;44.804;10.220;2023-05-07T09:27:18;27.20;98.30
58469;DHT22;44257;44.804;10.220;2023-05-07T09:29:45;27.10;97.40
58469;DHT22;44257;44.804;10.220;2023-05-07T09:32:12;27.00;96.80
58469;DHT22;44257;44.804;10.220;2023-05-07T09:34:39;26.70;96.60
58469;DHT22;44257;44.804;10.220;2023-05-07T09:37:06;26.60;97.20
58469;DHT22;44257;44.804;10.220;2023-05-07T09:39:40;26.70;97.60
58469;DHT22;44257;44.804;10.220;2023-05-07T09:42:07;26.80;96.00
58469;DHT22;44257;44.804;10.220;2023-05-07T09:44:35;26.80;96.20
58469;DHT22;44257;44.804;10.220;2023-05-07T09:47:06;27.00;95.40
58469;DHT22;44257;44.804;10.220;2023-05-07T09:49:39;27.00;96.20
58469;DHT22;44257;44.804;10.220;2023-05-07T09:52:10;26.90;97.00
58469;DHT22;44257;44.804;10.220;2023-05-07T09:54:41;27.00;97.10
58469;DHT22;44257;44.804;10.220;2023-05-07T09:57:13;27.00;97.10
58469;DHT22;44257;44.804;10.220;2023-05-07T09:59:43;27.10;98.00
58469;DHT22;44257;44.804;10.220;2023-05-07T10:02:14;27.30;97.30
58469;DHT22;44257;44.804;10.220;2023-05-07T10:04:46;27.20;96.10
58469;DHT22;44257;44.804;10.220;2023-05-07T10:07:16;26.90;96.30
58469;DHT22;44257;44.804;10.220;2023-05-07T10:09:43;26.70;97.20
58469;DHT22;44257;44.804;10.220;2023-05-07T10:12:21;26.60;96.60
58469;DHT22;44257;44.804;10.220;2023-05-07T10:14:48;26.70;96.40
58469;DHT22;44257;44.804;10.220;2023-05-07T10:17:16;26.80;97.50
58469;DHT22;44257;44.804;10.220;2023-05-07T10:19:48;26.80;96.70
58469;DHT22;44257;44.804;10.220;2023-05-07T10:22:16;26.80;97.80
58469;DHT22;44257;44.804;10.220;2023-05-07T10:24:45;26.80;97.00
58469;DHT22;44257;44.804;10.220;2023-05-07T10:27:17;26.60;96.70
58469;DHT22;44257;44.804;10.220;2023-05-07T10:30:21;26.50;96.20
58469;DHT22;44257;44.804;10.220;2023-05-07T10:32:55;26.50;96.50
58469;DHT22;44257;44.804;10.220;2023-05-07T10:35:31;26.70;97.20
58469;DHT22;44257;44.804;10.220;2023-05-07T10:38:00;27.10;96.70
58469;DHT22;44257;44.804;10.220;2023-05-07T10:40:30;27.40;96.70
58469;DHT22;44257;44.804;10.220;2023-05-07T10:43:01;27.40;96.80
58469;DHT22;44257;44.804;10.220;2023-05-07T10:45:34;27.60;97.50
58469;DHT22;44257;44.804;10.220;2023-05-07T10:48:17;27.70;96.30
58469;DHT22;44257;44.804;10.220;2023-05-07T10:51:18;28.00;97.60
58469;DHT22;44257;44.804;10.220;2023-05-07T10:53:44;28.30;96.20
58469;DHT22;44257;44.804;10.220;2023-05-07T11:02:02;28.40;95.40
58469;DHT22;44257;44.804;10.220;2023-05-07T11:04:41;28.30;94.70
58469;DHT22;44257;44.804;10.220;2023-05-07T11:07:25;28.20;94.40
58469;DHT22;44257;44.804;10.220;2023-05-07T11:09:54;27.90;95.10
58469;DHT22;44257;44.804;10.220;2023-05-07T11:15:08;28.00;95.70
58469;DHT22;44257;44.804;10.220;2023-05-07T11:17:54;27.80;95.00
58469;DHT22;44257;44.804;10.220;2023-05-07T11:20:43;27.70;95.60
58469;DHT22;44257;44.804;10.220;2023-05-07T11:26:24;28.00;95.10
58469;DHT22;44257;44.804;10.220;2023-05-07T11:28:51;28.10;94.30
58469;DHT22;44257;44.804;10.220;2023-05-07T11:31:26;28.00;95.10
58469;DHT22;44257;44.804;10.220;2023-05-07T11:33:54;28.00;96.40
58469;DHT22;44257;44.804;10.220;2023-05-07T11:36:22;27.80;96.60
58469;DHT22;44257;44.804;10.220;2023-05-07T11:38:51;27.70;96.10
58469;DHT22;44257;44.804;10.220;2023-05-07T11:41:17;27.70;96.50
58469;DHT22;44257;44.804;10.220;2023-05-07T11:43:55;27.90;96.20
58469;DHT22;44257;44.804;10.220;2023-05-07T11:46:21;28.10;96.10
58469;DHT22;44257;44.804;10.220;2023-05-07T11:48:47;28.20;95.20
58469;DHT22;44257;44.804;10.220;2023-05-07T11:51:19;28.30;96.10
58469;DHT22;44257;44.804;10.220;2023-05-07T11:53:45;28.60;97.10
58469;DHT22;44257;44.804;10.220;2023-05-07T11:56:13;28.80;96.50
58469;DHT22;44257;44.804;10.220;2023-05-07T11:58:40;28.90;94.80
58469;DHT22;44257;44.804;10.220;2023-05-07T12:01:08;28.90;95.50
58469;DHT22;44257;44.804;10.220;2023-05-07T12:03:35;29.00;94.40
58469;DHT22;44257;44.804;10.220;2023-05-07T12:06:05;29.10;95.10
58469;DHT22;44257;44.804;10.220;2023-05-07T12:08:31;29.10;94.40
58469;DHT22;44257;44.804;10.220;2023-05-07T12:10:58;29.10;94.40
58469;DHT22;44257;44.804;10.220;2023-05-07T12:13:25;29.10;94.30
58469;DHT22;44257;44.804;10.220;2023-05-07T12:15:52;29.10;94.50
58469;DHT22;44257;44.804;10.220;2023-05-07T12:18:18;29.20;94.40
58469;DHT22;44257;44.804;10.220;2023-05-07T12:20:45;29.20;93.80
58469;DHT22;44257;44.804;10.220;2023-05-07T12:23:11;29.20;94.20
58469;DHT22;44257;44.804;10.220;2023-05-07T12:25:39;29.20;94.80
58469;DHT22;44257;44.804;10.220;2023-05-07T12:28:07;29.20;94.60
58469;DHT22;44257;44.804;10.220;2023-05-07T12:30:37;29.10;93.80
58469;DHT22;44257;44.804;10.220;2023-05-07T12:33:03;29.00;93.20
58469;DHT22;44257;44.804;10.220;2023-05-07T12:35:30;29.00;94.10
58469;DHT22;44257;44.804;10.220;2023-05-07T12:37:58;29.00;94.00
58469;DHT22;44257;44.804;10.220;2023-05-07T12:40:38;29.10;92.30
58469;DHT22;44257;44.804;10.220;2023-05-07T12:43:04;29.00;91.70
58469;DHT22;44257;44.804;10.220;2023-05-07T12:45:30;28.90;92.20
58469;DHT22;44257;44.804;10.220;2023-05-07T12:47:56;29.00;92.60
58469;DHT22;44257;44.804;10.220;2023-05-07T12:50:22;29.20;93.10
58469;DHT22;44257;44.804;10.220;2023-05-07T12:52:48;29.40;93.70
58469;DHT22;44257;44.804;10.220;2023-05-07T12:55:15;29.60;93.10
58469;DHT22;44257;44.804;10.220;2023-05-07T12:57:43;29.60;91.80
58469;DHT22;44257;44.804;10.220;2023-05-07T13:00:10;29.40;91.70
58469;DHT22;44257;44.804;10.220;2023-05-07T13:02:41;29.00;91.70
58469;DHT22;44257;44.804;10.220;2023-05-07T13:05:07;28.90;93.20
58469;DHT22;44257;44.804;10.220;2023-05-07T13:07:34;29.00;92.80
58469;DHT22;44257;44.804;10.220;2023-05-07T13:10:00;29.00;92.40
58469;DHT22;44257;44.804;10.220;2023-05-07T13:12:25;29.00;91.80
58469;DHT22;44257;44.804;10.220;2023-05-07T13:14:51;29.10;91.90
58469;DHT22;44257;44.804;10.220;2023-05-07T13:17:17;29.10;91.20
58469;DHT22;44257;44.804;10.220;2023-05-07T13:19:44;29.20;93.20
58469;DHT22;44257;44.804;10.220;2023-05-07T13:22:10;29.30;91.60
58469;DHT22;44257;44.804;10.220;2023-05-07T13:24:36;29.40;92.10
58469;DHT22;44257;44.804;10.220;2023-05-07T13:27:03;29.20;91.80
58469;DHT22;44257;44.804;10.220;2023-05-07T13:29:29;29.20;91.90
58469;DHT22;44257;44.804;10.220;2023-05-07T13:31:59;29.40;91.50
58469;DHT22;44257;44.804;10.220;2023-05-07T13:34:25;29.50;90.50
58469;DHT22;44257;44.804;10.220;2023-05-07T13:36:51;29.60;91.50
58469;DHT22;44257;44.804;10.220;2023-05-07T13:39:17;29.70;92.20
58469;DHT22;44257;44.804;10.220;2023-05-07T13:41:43;29.80;91.10
58469;DHT22;44257;44.804;10.220;2023-05-07T13:44:09;29.80;90.20
58469;DHT22;44257;44.804;10.220;2023-05-07T13:46:36;29.50;89.50
58469;DHT22;44257;44.804;10.220;2023-05-07T13:49:02;29.10;90.60
58469;DHT22;44257;44.804;10.220;2023-05-07T13:51:28;29.00;90.60
58469;DHT22;44257;44.804;10.220;2023-05-07T13:53:53;28.90;90.40
58469;DHT22;44257;44.804;10.220;2023-05-07T13:56:19;28.90;91.90
58469;DHT22;44257;44.804;10.220;2023-05-07T13:58:46;29.10;90.00
58469;DHT22;44257;44.804;10.220;2023-05-07T14:01:12;29.20;91.00
58469;DHT22;44257;44.804;10.220;2023-05-07T14:03:38;29.40;90.00
58469;DHT22;44257;44.804;10.220;2023-05-07T14:06:05;29.40;90.10
58469;DHT22;44257;44.804;10.220;2023-05-07T14:08:31;29.40;90.50
58469;DHT22;44257;44.804;10.220;2023-05-07T14:10:57;29.50;92.30
58469;DHT22;44257;44.804;10.220;2023-05-07T14:13:23;29.70;90.60
58469;DHT22;44257;44.804;10.220;2023-05-07T14:15:49;29.60;90.50
58469;DHT22;44257;44.804;10.220;2023-05-07T14:18:15;29.40;90.30
58469;DHT22;44257;44.804;10.220;2023-05-07T14:20:41;29.30;90.10
58469;DHT22;44257;44.804;10.220;2023-05-07T14:23:12;29.30;90.90
58469;DHT22;44257;44.804;10.220;2023-05-07T14:25:38;29.20;89.60
58469;DHT22;44257;44.804;10.220;2023-05-07T14:28:04;29.20;91.20
58469;DHT22;44257;44.804;10.220;2023-05-07T14:30:30;29.30;91.20
58469;DHT22;44257;44.804;10.220;2023-05-07T14:32:55;29.50;91.40
58469;DHT22;44257;44.804;10.220;2023-05-07T14:35:21;29.70;91.00
58469;DHT22;44257;44.804;10.220;2023-05-07T14:37:47;30.00;90.20
58469;DHT22;44257;44.804;10.220;2023-05-07T14:40:13;30.10;91.30
58469;DHT22;44257;44.804;10.220;2023-05-07T14:42:40;30.20;90.50
58469;DHT22;44257;44.804;10.220;2023-05-07T14:45:06;30.20;91.40
58469;DHT22;44257;44.804;10.220;2023-05-07T14:47:32;30.20;90.70
58469;DHT22;44257;44.804;10.220;2023-05-07T14:49:58;30.20;89.60
58469;DHT22;44257;44.804;10.220;2023-05-07T14:52:26;30.10;90.40
58469;DHT22;44257;44.804;10.220;2023-05-07T14:54:52;30.00;90.00
58469;DHT22;44257;44.804;10.220;2023-05-07T14:57:18;29.80;91.00
58469;DHT22;44257;44.804;10.220;2023-05-07T14:59:45;29.70;91.30
58469;DHT22;44257;44.804;10.220;2023-05-07T15:02:12;29.60;90.90
58469;DHT22;44257;44.804;10.220;2023-05-07T15:04:38;29.70;91.20
58469;DHT22;44257;44.804;10.220;2023-05-07T15:07:12;29.70;91.60
58469;DHT22;44257;44.804;10.220;2023-05-07T15:09:41;29.80;91.00
58469;DHT22;44257;44.804;10.220;2023-05-07T15:12:07;29.80;92.00
58469;DHT22;44257;44.804;10.220;2023-05-07T15:14:33;29.80;92.90
58469;DHT22;44257;44.804;10.220;2023-05-07T15:16:59;29.80;91.00
58469;DHT22;44257;44.804;10.220;2023-05-07T15:19:26;29.80;91.40
58469;DHT22;44257;44.804;10.220;2023-05-07T15:21:56;29.90;90.90
58469;DHT22;44257;44.804;10.220;2023-05-07T15:24:22;29.80;90.50
58469;DHT22;44257;44.804;10.220;2023-05-07T15:26:48;29.60;91.40
58469;DHT22;44257;44.804;10.220;2023-05-07T15:29:14;29.60;92.60
58469;DHT22;44257;44.804;10.220;2023-05-07T15:31:40;29.50;91.90